createdAt,value
2022-12-17T00:02:41.405Z,-4.90
2022-12-17T00:05:27.625Z,-4.90
2022-12-17T00:08:17.593Z,-4.90
2022-12-17T00:11:04.438Z,-4.90
2022-12-17T00:13:49.844Z,-4.90
2022-12-17T00:16:35.721Z,-5.00
2022-12-17T00:19:21.187Z,-5.00
2022-12-17T00:22:14.569Z,-5.00
2022-12-17T00:25:00.132Z,-5.00
2022-12-17T00:27:46.354Z,-5.00
2022-12-17T00:30:31.755Z,-5.10
2022-12-17T00:33:17.573Z,-5.10
2022-12-17T00:36:19.774Z,-5.20
2022-12-17T00:39:05.989Z,-5.20
2022-12-17T00:41:51.660Z,-5.20
2022-12-17T00:44:37.644Z,-5.10
2022-12-17T00:47:22.910Z,-5.20
2022-12-17T00:50:08.873Z,-5.30
2022-12-17T00:52:54.430Z,-5.30
2022-12-17T00:55:42.408Z,-5.20
2022-12-17T00:58:27.893Z,-5.40
2022-12-17T01:01:18.364Z,-5.30
2022-12-17T01:04:04.157Z,-5.40
2022-12-17T01:06:50.159Z,-5.40
2022-12-17T01:09:36.535Z,-5.40
2022-12-17T01:12:22.530Z,-5.40
2022-12-17T01:15:07.834Z,-5.50
2022-12-17T01:17:53.650Z,-5.50
2022-12-17T01:20:41.729Z,-5.50
2022-12-17T01:23:38.796Z,-5.50
2022-12-17T01:26:24.858Z,-5.60
2022-12-17T01:29:11.033Z,-5.50
2022-12-17T01:31:56.391Z,-5.50
2022-12-17T01:34:42.281Z,-5.60
2022-12-17T01:37:27.871Z,-5.60
2022-12-17T01:40:24.274Z,-5.60
2022-12-17T01:43:10.070Z,-5.60
2022-12-17T01:45:59.977Z,-5.60
2022-12-17T01:49:06.042Z,-5.60
2022-12-17T01:51:53.616Z,-5.50
2022-12-17T01:54:39.072Z,-5.50
2022-12-17T01:57:26.160Z,-5.50
2022-12-17T02:00:27.230Z,-5.40
2022-12-17T02:03:13.433Z,-5.50
2022-12-17T02:06:10.323Z,-5.50
2022-12-17T02:09:18.269Z,-5.60
2022-12-17T02:12:23.007Z,-5.50
2022-12-17T02:15:19.288Z,-5.60
2022-12-17T02:18:11.995Z,-5.60
2022-12-17T02:21:05.544Z,-5.60
2022-12-17T02:24:00.231Z,-5.60
2022-12-17T02:27:07.761Z,-5.60
2022-12-17T02:29:58.972Z,-5.60
2022-12-17T02:32:45.705Z,-5.60
2022-12-17T02:35:35.508Z,-5.60
2022-12-17T02:38:34.815Z,-5.70
2022-12-17T02:41:21.135Z,-5.70
2022-12-17T02:44:07.397Z,-5.80
2022-12-17T02:46:53.382Z,-5.80
2022-12-17T02:49:39.519Z,-5.80
2022-12-17T02:52:25.562Z,-5.90
2022-12-17T02:55:11.556Z,-5.90
2022-12-17T02:57:57.032Z,-5.90
2022-12-17T03:00:43.263Z,-6.00
2022-12-17T03:03:28.971Z,-6.00
2022-12-17T03:06:15.147Z,-6.00
2022-12-17T03:09:00.561Z,-6.00
2022-12-17T03:11:48.410Z,-6.10
2022-12-17T03:14:34.199Z,-6.10
2022-12-17T03:17:20.162Z,-6.10
2022-12-17T03:20:05.548Z,-6.20
2022-12-17T03:22:51.806Z,-6.20
2022-12-17T03:25:37.824Z,-6.30
2022-12-17T03:28:26.450Z,-6.30
2022-12-17T03:31:12.080Z,-6.30
2022-12-17T03:33:58.146Z,-6.40
2022-12-17T03:36:43.659Z,-6.40
2022-12-17T03:39:29.681Z,-6.40
2022-12-17T03:42:19.652Z,-6.40
2022-12-17T03:45:05.838Z,-6.40
2022-12-17T03:47:51.449Z,-6.50
2022-12-17T03:50:37.451Z,-6.50
2022-12-17T03:53:23.573Z,-6.50
2022-12-17T03:56:09.214Z,-6.50
2022-12-17T03:58:54.564Z,-6.50
2022-12-17T04:01:40.581Z,-6.50
2022-12-17T04:04:26.173Z,-6.50
2022-12-17T04:07:12.074Z,-6.50
2022-12-17T04:09:57.655Z,-6.50
2022-12-17T04:12:43.430Z,-6.50
2022-12-17T04:15:29.501Z,-6.50
2022-12-17T04:18:15.354Z,-6.50
2022-12-17T04:21:01.001Z,-6.60
2022-12-17T04:23:46.936Z,-6.60
2022-12-17T04:26:32.467Z,-6.60
2022-12-17T04:29:18.596Z,-6.60
2022-12-17T04:32:04.058Z,-6.50
2022-12-17T04:34:50.002Z,-6.50
2022-12-17T04:37:35.382Z,-6.50
2022-12-17T04:40:21.776Z,-6.50
2022-12-17T04:43:07.245Z,-6.50
2022-12-17T04:45:53.567Z,-6.50
2022-12-17T04:48:42.069Z,-6.50
2022-12-17T04:51:28.680Z,-6.50
2022-12-17T04:54:13.959Z,-6.50
2022-12-17T04:57:00.279Z,-6.50
2022-12-17T04:59:45.763Z,-6.50
2022-12-17T05:02:31.898Z,-6.50
2022-12-17T05:05:17.789Z,-6.40
2022-12-17T05:08:03.575Z,-6.40
2022-12-17T05:10:49.010Z,-6.40
2022-12-17T05:13:34.977Z,-6.40
2022-12-17T05:16:20.761Z,-6.40
2022-12-17T05:19:07.092Z,-6.40
2022-12-17T05:21:52.583Z,-6.40
2022-12-17T05:24:38.561Z,-6.40
2022-12-17T05:27:24.511Z,-6.40
2022-12-17T05:30:10.312Z,-6.40
2022-12-17T05:32:55.773Z,-6.50
2022-12-17T05:35:41.778Z,-6.50
2022-12-17T05:38:29.108Z,-6.50
2022-12-17T05:41:17.193Z,-6.50
2022-12-17T05:44:03.869Z,-6.50
2022-12-17T05:46:49.795Z,-6.50
2022-12-17T05:49:35.533Z,-6.60
2022-12-17T05:52:21.641Z,-6.60
2022-12-17T05:55:26.897Z,-6.60
2022-12-17T05:58:24.513Z,-6.60
2022-12-17T06:01:18.684Z,-6.50
2022-12-17T06:04:04.665Z,-6.60
2022-12-17T06:06:50.074Z,-6.50
2022-12-17T06:09:36.288Z,-6.50
2022-12-17T06:12:21.604Z,-6.50
2022-12-17T06:15:07.666Z,-6.50
2022-12-17T06:17:53.072Z,-6.60
2022-12-17T06:20:39.181Z,-6.60
2022-12-17T06:23:29.263Z,-6.50
2022-12-17T06:26:16.093Z,-6.60
2022-12-17T06:29:02.083Z,-6.60
2022-12-17T06:31:48.150Z,-6.60
2022-12-17T06:34:34.070Z,-6.60
2022-12-17T06:37:20.075Z,-6.60
2022-12-17T06:40:05.564Z,-6.60
2022-12-17T06:42:51.534Z,-6.60
2022-12-17T06:45:37.219Z,-6.70
2022-12-17T06:48:25.145Z,-6.70
2022-12-17T06:51:13.133Z,-6.70
2022-12-17T06:53:59.648Z,-6.70
2022-12-17T06:56:45.194Z,-6.80
2022-12-17T06:59:31.178Z,-6.70
2022-12-17T07:02:16.935Z,-6.80
2022-12-17T07:05:03.479Z,-6.80
2022-12-17T07:07:48.843Z,-6.80
2022-12-17T07:10:34.863Z,-6.80
2022-12-17T07:13:32.345Z,-6.80
2022-12-17T07:16:18.294Z,-6.80
2022-12-17T07:19:03.994Z,-6.80
2022-12-17T07:21:50.242Z,-6.80
2022-12-17T07:24:35.865Z,-6.80
2022-12-17T07:27:21.443Z,-6.70
2022-12-17T07:30:07.118Z,-6.70
2022-12-17T07:32:53.311Z,-6.70
2022-12-17T07:35:39.713Z,-6.60
2022-12-17T07:38:26.127Z,-6.60
2022-12-17T07:41:11.450Z,-6.60
2022-12-17T07:43:57.583Z,-6.50
2022-12-17T07:46:43.384Z,-6.60
2022-12-17T07:49:29.635Z,-6.50
2022-12-17T07:52:15.042Z,-6.60
2022-12-17T07:55:01.571Z,-6.50
2022-12-17T07:57:47.056Z,-6.50
2022-12-17T08:00:33.192Z,-6.50
2022-12-17T08:03:19.811Z,-6.50
2022-12-17T08:06:06.029Z,-6.50
2022-12-17T08:08:51.453Z,-6.50
2022-12-17T08:11:37.364Z,-6.50
2022-12-17T08:14:22.838Z,-6.40
2022-12-17T08:17:08.784Z,-6.40
2022-12-17T08:19:54.199Z,-6.40
2022-12-17T08:22:53.812Z,-6.40
2022-12-17T08:25:39.413Z,-6.40
2022-12-17T08:28:49.730Z,-6.40
2022-12-17T08:31:32.826Z,-6.40
2022-12-17T08:34:18.740Z,-6.40
2022-12-17T08:37:04.203Z,-6.30
2022-12-17T08:39:50.359Z,-6.20
2022-12-17T08:42:36.108Z,-6.10
2022-12-17T08:45:22.813Z,-6.00
2022-12-17T08:48:08.258Z,-6.00
2022-12-17T08:50:54.395Z,-6.00
2022-12-17T08:53:40.252Z,-6.00
2022-12-17T08:56:26.699Z,-5.90
2022-12-17T08:59:12.226Z,-5.90
2022-12-17T09:01:58.646Z,-5.90
2022-12-17T09:04:44.447Z,-5.80
2022-12-17T09:07:30.431Z,-5.80
2022-12-17T09:10:15.882Z,-5.80
2022-12-17T09:13:04.987Z,-5.70
2022-12-17T09:15:51.315Z,-5.70
2022-12-17T09:18:39.182Z,-5.70
2022-12-17T09:21:25.467Z,-5.60
2022-12-17T09:24:11.648Z,-5.50
2022-12-17T09:26:57.126Z,-5.30
2022-12-17T09:29:43.101Z,-5.30
2022-12-17T09:32:29.183Z,-5.20
2022-12-17T09:35:15.199Z,-5.20
2022-12-17T09:38:00.720Z,-5.10
2022-12-17T09:40:48.256Z,-5.00
2022-12-17T09:43:45.797Z,-5.00
2022-12-17T09:46:48.201Z,-4.90
2022-12-17T09:49:40.935Z,-4.90
2022-12-17T09:52:41.730Z,-4.90
2022-12-17T09:55:34.159Z,-4.90
2022-12-17T09:58:21.927Z,-5.00
2022-12-17T10:01:08.419Z,-4.90
2022-12-17T10:03:56.091Z,-4.80
2022-12-17T10:06:45.777Z,-4.80
2022-12-17T10:09:34.475Z,-4.70
2022-12-17T10:12:34.973Z,-4.70
2022-12-17T10:15:21.760Z,-4.60
2022-12-17T10:18:07.277Z,-4.40
2022-12-17T10:21:09.648Z,-4.40
2022-12-17T10:23:55.062Z,-4.40
2022-12-17T10:26:45.184Z,-4.40
2022-12-17T10:29:42.426Z,-4.40
2022-12-17T10:32:39.829Z,-4.50
2022-12-17T10:35:46.093Z,-4.80
2022-12-17T10:38:38.430Z,-4.90
2022-12-17T10:41:23.982Z,-4.90
2022-12-17T10:44:09.881Z,-5.10
2022-12-17T10:46:55.448Z,-5.10
2022-12-17T10:49:43.447Z,-5.10
2022-12-17T10:52:50.246Z,-5.20
2022-12-17T10:55:43.792Z,-5.20
2022-12-17T10:58:39.113Z,-5.30
2022-12-17T11:01:29.429Z,-5.40
2022-12-17T11:04:17.381Z,-5.50
2022-12-17T11:07:10.597Z,-5.50
2022-12-17T11:10:09.980Z,-5.40
2022-12-17T11:13:02.160Z,-5.50
2022-12-17T11:16:03.905Z,-5.40
2022-12-17T11:19:03.459Z,-5.30
2022-12-17T11:22:15.421Z,-5.20
2022-12-17T11:25:24.542Z,-5.30
2022-12-17T11:28:20.485Z,-5.30
2022-12-17T11:31:16.791Z,-5.20
2022-12-17T11:34:34.010Z,-5.20
2022-12-17T11:37:32.563Z,-5.30
2022-12-17T11:40:24.537Z,-5.40
2022-12-17T11:43:19.787Z,-5.40
2022-12-17T11:46:47.882Z,-5.30
2022-12-17T11:49:46.038Z,-5.20
2022-12-17T11:53:09.044Z,-5.20
2022-12-17T11:56:10.704Z,-5.30
2022-12-17T11:59:00.809Z,-5.20
2022-12-17T12:02:11.657Z,-5.30
2022-12-17T12:05:32.721Z,-5.30
2022-12-17T12:08:45.011Z,-5.30
2022-12-17T12:11:44.344Z,-5.20
2022-12-17T12:15:13.957Z,-5.20
2022-12-17T12:18:11.520Z,-5.20
2022-12-17T12:21:30.463Z,-5.20
2022-12-17T12:24:34.341Z,-5.20
2022-12-17T12:27:49.980Z,-5.10
2022-12-17T12:30:40.508Z,-5.00
2022-12-17T12:33:44.092Z,-5.00
2022-12-17T12:36:33.167Z,-5.00
2022-12-17T12:39:19.337Z,-4.90
2022-12-17T12:42:21.082Z,-4.90
2022-12-17T12:45:46.269Z,-4.80
2022-12-17T12:48:40.634Z,-4.70
2022-12-17T12:51:38.830Z,-4.70
2022-12-17T12:54:47.655Z,-4.70
2022-12-17T12:57:51.474Z,-4.80
2022-12-17T13:01:06.929Z,-4.80
2022-12-17T13:04:19.028Z,-4.90
2022-12-17T13:06:52.516Z,-5.00
2022-12-17T13:09:21.198Z,-5.00
2022-12-17T13:12:01.970Z,-5.00
2022-12-17T13:14:34.562Z,-5.00
2022-12-17T13:17:21.711Z,-5.00
2022-12-17T13:19:57.999Z,-5.00
2022-12-17T13:22:24.932Z,-4.90
2022-12-17T13:24:55.155Z,-5.00
2022-12-17T13:27:33.718Z,-5.00
2022-12-17T13:30:21.977Z,-5.00
2022-12-17T13:33:21.269Z,-5.00
2022-12-17T13:36:13.287Z,-5.00
2022-12-17T13:38:55.081Z,-5.10
2022-12-17T13:41:31.820Z,-5.10
2022-12-17T13:44:02.895Z,-5.00
2022-12-17T13:46:46.739Z,-5.00
2022-12-17T13:49:22.743Z,-5.00
2022-12-17T13:52:11.117Z,-5.00
2022-12-17T13:54:39.009Z,-5.00
2022-12-17T13:57:13.637Z,-5.00
2022-12-17T13:59:40.722Z,-5.10
2022-12-17T14:02:30.745Z,-5.00
2022-12-17T14:05:05.809Z,-5.00
2022-12-17T14:07:38.987Z,-5.00
2022-12-17T14:10:14.584Z,-5.00
2022-12-17T14:12:42.114Z,-5.00
2022-12-17T14:15:24.532Z,-5.00
2022-12-17T14:17:53.512Z,-5.00
2022-12-17T14:20:24.934Z,-5.00
2022-12-17T14:23:01.149Z,-4.90
2022-12-17T14:25:34.320Z,-4.90
2022-12-17T14:28:07.232Z,-4.90
2022-12-17T14:30:46.143Z,-4.80
2022-12-17T14:33:29.219Z,-4.80
2022-12-17T14:35:57.913Z,-4.80
2022-12-17T14:38:37.901Z,-4.80
2022-12-17T14:41:31.859Z,-4.80
2022-12-17T14:44:00.912Z,-4.70
2022-12-17T14:46:29.919Z,-4.70
2022-12-17T14:49:01.913Z,-4.70
2022-12-17T14:51:35.560Z,-4.70
2022-12-17T14:54:29.317Z,-4.60
2022-12-17T14:56:57.852Z,-4.60
2022-12-17T14:59:26.288Z,-4.60
2022-12-17T15:01:56.505Z,-4.50
2022-12-17T15:04:24.196Z,-4.50
2022-12-17T15:06:54.671Z,-4.50
2022-12-17T15:09:22.230Z,-4.40
2022-12-17T15:11:49.361Z,-4.40
2022-12-17T15:14:17.015Z,-4.40
2022-12-17T15:16:43.901Z,-4.40
2022-12-17T15:19:11.515Z,-4.30
2022-12-17T15:21:38.466Z,-4.30
2022-12-17T15:24:10.383Z,-4.20
2022-12-17T15:26:37.224Z,-4.20
2022-12-17T15:29:04.716Z,-4.20
2022-12-17T15:31:35.395Z,-4.20
2022-12-17T15:34:03.151Z,-4.10
2022-12-17T15:36:31.987Z,-4.10
2022-12-17T15:38:59.689Z,-4.00
2022-12-17T15:41:45.176Z,-4.00
2022-12-17T15:44:13.118Z,-4.00
2022-12-17T15:46:40.220Z,-3.90
2022-12-17T15:49:07.768Z,-3.90
2022-12-17T15:51:34.722Z,-3.90
2022-12-17T15:54:04.229Z,-3.90
2022-12-17T15:56:31.127Z,-3.80
2022-12-17T15:58:59.131Z,-3.80
2022-12-17T16:01:26.257Z,-3.70
2022-12-17T16:03:53.838Z,-3.70
2022-12-17T16:06:20.897Z,-3.70
2022-12-17T16:08:48.119Z,-3.70
2022-12-17T16:11:16.134Z,-3.70
2022-12-17T16:13:43.316Z,-3.70
2022-12-17T16:16:10.813Z,-3.70
2022-12-17T16:18:38.956Z,-3.70
2022-12-17T16:21:07.891Z,-3.60
2022-12-17T16:23:35.846Z,-3.60
2022-12-17T16:26:05.580Z,-3.60
2022-12-17T16:28:33.981Z,-3.60
2022-12-17T16:31:06.964Z,-3.60
2022-12-17T16:33:36.747Z,-3.60
2022-12-17T16:36:04.472Z,-3.60
2022-12-17T16:38:31.689Z,-3.60
2022-12-17T16:41:01.853Z,-3.50
2022-12-17T16:43:34.623Z,-3.50
2022-12-17T16:46:02.678Z,-3.50
2022-12-17T16:48:37.849Z,-3.50
2022-12-17T16:51:19.039Z,-3.50
2022-12-17T16:53:51.509Z,-3.50
2022-12-17T16:56:25.097Z,-3.50
2022-12-17T16:58:52.757Z,-3.50
2022-12-17T17:01:21.197Z,-3.50
2022-12-17T17:03:49.275Z,-3.50
2022-12-17T17:06:17.724Z,-3.50
2022-12-17T17:08:45.088Z,-3.50
2022-12-17T17:11:13.453Z,-3.50
2022-12-17T17:13:40.773Z,-3.50
2022-12-17T17:16:09.631Z,-3.50
2022-12-17T17:18:38.184Z,-3.40
2022-12-17T17:21:20.502Z,-3.50
2022-12-17T17:23:53.762Z,-3.40
2022-12-17T17:26:24.692Z,-3.50
2022-12-17T17:28:52.136Z,-3.40
2022-12-17T17:31:21.693Z,-3.40
2022-12-17T17:33:50.495Z,-3.40
2022-12-17T17:36:23.717Z,-3.50
2022-12-17T17:38:52.766Z,-3.50
2022-12-17T17:41:22.364Z,-3.40
2022-12-17T17:43:54.983Z,-3.40
2022-12-17T17:46:22.290Z,-3.50
2022-12-17T17:48:53.975Z,-3.50
2022-12-17T17:51:59.832Z,-3.50
2022-12-17T17:54:14.675Z,-3.50
2022-12-17T17:56:42.972Z,-3.50
2022-12-17T17:59:12.964Z,-3.50
2022-12-17T18:01:45.000Z,-3.60
2022-12-17T18:04:15.336Z,-3.70
2022-12-17T18:07:02.623Z,-3.70
2022-12-17T18:09:31.158Z,-3.80
2022-12-17T18:12:18.052Z,-3.80
2022-12-17T18:15:11.903Z,-3.70
2022-12-17T18:17:32.123Z,-3.70
2022-12-17T18:19:59.565Z,-3.60
2022-12-17T18:22:26.490Z,-3.60
2022-12-17T18:24:53.879Z,-3.60
2022-12-17T18:27:20.875Z,-3.60
2022-12-17T18:29:48.531Z,-3.60
2022-12-17T18:32:15.368Z,-3.50
2022-12-17T18:34:42.642Z,-3.50
2022-12-17T18:37:09.554Z,-3.50
2022-12-17T18:39:36.691Z,-3.50
2022-12-17T18:42:22.447Z,-3.50
2022-12-17T18:44:49.930Z,-3.50
2022-12-17T18:47:16.887Z,-3.50
2022-12-17T18:49:45.067Z,-3.50
2022-12-17T18:52:16.704Z,-3.50
2022-12-17T18:54:45.007Z,-3.40
2022-12-17T18:57:12.254Z,-3.40
2022-12-17T18:59:41.334Z,-3.30
2022-12-17T19:02:15.155Z,-3.30
2022-12-17T19:04:42.980Z,-3.30
2022-12-17T19:07:10.566Z,-3.30
2022-12-17T19:09:39.602Z,-3.20
2022-12-17T19:12:08.496Z,-3.20
2022-12-17T19:14:36.517Z,-3.20
2022-12-17T19:17:05.113Z,-3.20
2022-12-17T19:19:33.068Z,-3.20
2022-12-17T19:22:00.450Z,-3.20
2022-12-17T19:24:28.262Z,-3.20
2022-12-17T19:26:55.287Z,-3.20
2022-12-17T19:29:22.757Z,-3.20
2022-12-17T19:31:49.904Z,-3.20
2022-12-17T19:34:19.342Z,-3.20
2022-12-17T19:36:47.810Z,-3.30
2022-12-17T19:39:18.673Z,-3.30
2022-12-17T19:41:46.059Z,-3.30
2022-12-17T19:44:15.458Z,-3.30
2022-12-17T19:46:43.182Z,-3.40
2022-12-17T19:49:15.620Z,-3.40
2022-12-17T19:51:44.360Z,-3.40
2022-12-17T19:54:15.442Z,-3.40
2022-12-17T19:56:44.443Z,-3.40
2022-12-17T19:59:13.937Z,-3.40
2022-12-17T20:01:44.384Z,-3.40
2022-12-17T20:04:13.792Z,-3.40
2022-12-17T20:06:40.817Z,-3.40
2022-12-17T20:09:08.315Z,-3.40
2022-12-17T20:11:36.251Z,-3.40
2022-12-17T20:14:10.583Z,-3.40
2022-12-17T20:16:40.217Z,-3.40
2022-12-17T20:19:11.455Z,-3.50
2022-12-17T20:21:41.134Z,-3.50
2022-12-17T20:24:10.123Z,-3.50
2022-12-17T20:26:37.365Z,-3.60
2022-12-17T20:29:06.241Z,-3.60
2022-12-17T20:31:34.308Z,-3.60
2022-12-17T20:34:03.984Z,-3.70
2022-12-17T20:36:31.572Z,-3.70
2022-12-17T20:38:59.214Z,-3.80
2022-12-17T20:41:28.686Z,-3.80
2022-12-17T20:43:57.056Z,-3.80
2022-12-17T20:46:25.400Z,-3.80
2022-12-17T20:48:53.641Z,-3.80
2022-12-17T20:51:25.973Z,-3.80
2022-12-17T20:53:56.366Z,-3.80
2022-12-17T20:56:25.528Z,-3.80
2022-12-17T20:59:05.997Z,-3.80
2022-12-17T21:01:35.231Z,-3.80
2022-12-17T21:04:03.611Z,-3.80
2022-12-17T21:06:36.477Z,-3.90
2022-12-17T21:09:04.406Z,-3.80
2022-12-17T21:11:34.098Z,-3.90
2022-12-17T21:14:09.531Z,-3.90
2022-12-17T21:16:38.869Z,-3.90
2022-12-17T21:19:07.566Z,-3.90
2022-12-17T21:21:36.830Z,-4.00
2022-12-17T21:24:05.087Z,-4.00
2022-12-17T21:26:37.682Z,-4.10
2022-12-17T21:29:06.560Z,-4.10
2022-12-17T21:31:36.379Z,-4.20
2022-12-17T21:34:05.618Z,-4.20
2022-12-17T21:36:34.144Z,-4.20
2022-12-17T21:39:02.661Z,-4.20
2022-12-17T21:41:44.993Z,-4.20
2022-12-17T21:44:14.571Z,-4.20
2022-12-17T21:46:46.749Z,-4.20
2022-12-17T21:49:18.005Z,-4.20
2022-12-17T21:51:45.221Z,-4.20
2022-12-17T21:54:18.942Z,-4.20
2022-12-17T21:56:47.059Z,-4.20
2022-12-17T21:59:14.523Z,-4.30
2022-12-17T22:01:41.510Z,-4.30
2022-12-17T22:04:08.731Z,-4.30
2022-12-17T22:06:41.425Z,-4.30
2022-12-17T22:09:23.941Z,-4.30
2022-12-17T22:12:21.033Z,-4.40
2022-12-17T22:14:48.340Z,-4.40
2022-12-17T22:17:16.074Z,-4.50
2022-12-17T22:19:43.482Z,-4.60
2022-12-17T22:22:10.308Z,-4.70
2022-12-17T22:24:37.763Z,-4.70
2022-12-17T22:27:09.542Z,-4.80
2022-12-17T22:29:56.097Z,-4.90
2022-12-17T22:32:41.686Z,-4.90
2022-12-17T22:36:14.094Z,-5.00
2022-12-17T22:41:44.625Z,-5.10
2022-12-17T22:44:34.958Z,-5.30
2022-12-17T22:44:42.204Z,-5.50
2022-12-17T22:46:18.125Z,-5.80
2022-12-17T22:48:45.301Z,-5.90
2022-12-17T22:51:21.973Z,-6.10
2022-12-17T22:54:03.160Z,-6.10
2022-12-17T22:56:51.869Z,-6.30
2022-12-17T22:59:18.841Z,-6.40
2022-12-17T23:01:46.449Z,-6.50
2022-12-17T23:04:14.768Z,-6.70
2022-12-17T23:06:45.278Z,-6.80
2022-12-17T23:09:19.138Z,-7.00
2022-12-17T23:11:48.224Z,-7.10
2022-12-17T23:14:15.292Z,-7.20
2022-12-17T23:16:42.624Z,-7.30
2022-12-17T23:19:09.633Z,-7.30
2022-12-17T23:21:37.319Z,-7.40
2022-12-17T23:24:04.614Z,-7.40
2022-12-17T23:26:34.692Z,-7.40
2022-12-17T23:29:20.541Z,-7.40
2022-12-17T23:31:54.643Z,-7.30
2022-12-17T23:34:21.605Z,-7.30
2022-12-17T23:36:48.771Z,-7.30
2022-12-17T23:39:15.749Z,-7.30
2022-12-17T23:41:42.966Z,-7.30
2022-12-17T23:45:14.529Z,-7.30
2022-12-17T23:47:42.001Z,-7.30
2022-12-17T23:50:10.498Z,-7.40
2022-12-17T23:52:38.154Z,-7.40
2022-12-17T23:55:06.832Z,-7.30
2022-12-17T23:57:34.256Z,-7.40
